Airport Name : Brandon Muni

Other Name : Brandon Muni

ICAO : CYBR

IATA : YBR

FAA :

Latitude : 49.91

Longitude : -99.951944

Country : Canada

Local Date and Time : 10/21/2018 2:41:00 AM

 

TAF (Terminal Aerodrome Forecast)

TAF CYBR 210538Z 2106/2118 15007KT P6SM SKC BECMG 2108/2110 30010KT FM211200 31015KT P6SM SKC RMK NXT FCST BY 211200Z

 

METAR (METeorological Aerodrome Report)

CYBR 210700Z 03003KT 15SM FEW110 M03/M08 A2990 RMK AC2 SLP150

CYBR 210600Z 12006KT 15SM SKC M01/M08 A2992 RMK PRESFR SLP156

CYBR 210500Z 14007KT 15SM SKC M01/M08 A2997 RMK PRESFR SLP174

CYBR 210400Z 15008KT 15SM BKN110 00/M07 A3002 RMK AC7 PRESFR SLP192